createdAt,value
2022-09-27T00:00:28.180Z,38.80
2022-09-27T00:05:31.747Z,38.90
2022-09-27T00:10:34.996Z,39.10
2022-09-27T00:15:39.650Z,39.00
2022-09-27T00:20:42.899Z,39.40
2022-09-27T00:25:56.700Z,39.30
2022-09-27T00:31:02.005Z,39.90
2022-09-27T00:36:07.140Z,39.90
2022-09-27T00:41:14.721Z,39.80
2022-09-27T00:46:27.813Z,39.90
2022-09-27T00:51:32.127Z,40.50
2022-09-27T00:56:36.640Z,40.10
2022-09-27T01:01:42.005Z,40.30
2022-09-27T01:06:45.609Z,40.60
2022-09-27T01:11:58.273Z,40.50
2022-09-27T01:17:13.547Z,41.30
2022-09-27T01:22:22.867Z,41.60
2022-09-27T01:28:02.985Z,41.30
2022-09-27T01:33:24.187Z,42.10
2022-09-27T01:38:36.455Z,41.90
2022-09-27T01:43:46.044Z,42.10
2022-09-27T01:48:52.737Z,42.30
2022-09-27T01:54:01.070Z,42.20
2022-09-27T01:59:10.579Z,42.20
2022-09-27T02:04:20.453Z,42.30
2022-09-27T02:09:28.894Z,42.20
2022-09-27T02:14:36.163Z,41.90
2022-09-27T02:19:52.326Z,42.00
2022-09-27T02:25:00.457Z,42.80
2022-09-27T02:30:07.849Z,42.80
2022-09-27T02:35:16.770Z,42.70
2022-09-27T02:40:20.194Z,42.80
2022-09-27T02:45:24.331Z,42.20
2022-09-27T02:50:58.697Z,42.30
2022-09-27T02:56:10.632Z,43.60
2022-09-27T03:01:18.029Z,43.60
2022-09-27T03:06:25.069Z,43.20
2022-09-27T03:11:28.418Z,43.40
2022-09-27T03:16:31.643Z,43.10
2022-09-27T03:21:36.286Z,43.40
2022-09-27T03:26:39.460Z,43.40
2022-09-27T03:31:43.017Z,43.40
2022-09-27T03:36:47.638Z,43.40
2022-09-27T03:41:50.810Z,43.40
2022-09-27T03:46:54.016Z,43.40
2022-09-27T03:51:58.699Z,43.30
2022-09-27T03:57:01.922Z,44.00
2022-09-27T04:02:05.166Z,43.50
2022-09-27T04:07:10.168Z,43.40
2022-09-27T04:12:13.497Z,44.00
2022-09-27T04:17:16.737Z,43.40
2022-09-27T04:22:21.278Z,43.40
2022-09-27T04:27:24.415Z,44.10
2022-09-27T04:32:27.675Z,44.30
2022-09-27T04:37:32.889Z,43.70
2022-09-27T04:42:36.209Z,44.20
2022-09-27T04:47:44.009Z,43.60
2022-09-27T04:52:52.142Z,44.60
2022-09-27T04:57:55.771Z,44.80
2022-09-27T05:02:58.986Z,44.10
2022-09-27T05:08:03.925Z,43.90
2022-09-27T05:13:07.501Z,44.30
2022-09-27T05:18:10.966Z,43.60
2022-09-27T05:23:15.526Z,43.80
2022-09-27T05:28:18.716Z,44.30
2022-09-27T05:33:21.942Z,43.60
2022-09-27T05:38:26.581Z,43.60
2022-09-27T05:43:29.811Z,43.70
2022-09-27T05:48:33.204Z,43.60
2022-09-27T05:53:38.114Z,43.60
2022-09-27T05:58:41.285Z,43.60
2022-09-27T06:03:46.446Z,43.40
2022-09-27T06:08:51.254Z,43.40
2022-09-27T06:13:54.629Z,43.70
2022-09-27T06:18:58.100Z,43.30
2022-09-27T06:24:03.232Z,43.30
2022-09-27T06:29:06.357Z,44.00
2022-09-27T06:34:09.544Z,43.30
2022-09-27T06:39:14.220Z,43.30
2022-09-27T06:44:18.059Z,43.20
2022-09-27T06:49:22.725Z,43.10
2022-09-27T06:54:27.274Z,43.10
2022-09-27T06:59:59.329Z,43.30
2022-09-27T07:05:04.325Z,43.20
2022-09-27T07:10:10.185Z,43.60
2022-09-27T07:15:13.336Z,44.00
2022-09-27T07:20:18.491Z,43.30
2022-09-27T07:25:23.292Z,43.40
2022-09-27T07:30:26.536Z,43.90
2022-09-27T07:35:30.349Z,44.10
2022-09-27T07:40:34.977Z,44.20
2022-09-27T07:45:38.475Z,44.10
2022-09-27T07:50:41.739Z,43.80
2022-09-27T07:55:51.092Z,43.90
2022-09-27T08:00:54.822Z,43.90
2022-09-27T08:05:58.015Z,43.90
2022-09-27T08:11:02.850Z,43.50
2022-09-27T08:16:06.301Z,43.90
2022-09-27T08:21:09.505Z,43.90
2022-09-27T08:26:14.103Z,43.80
2022-09-27T08:31:17.358Z,43.50
2022-09-27T08:36:21.236Z,43.10
2022-09-27T08:41:36.262Z,43.00
2022-09-27T08:46:46.305Z,43.10
2022-09-27T08:51:53.566Z,43.40
2022-09-27T08:57:03.980Z,43.00
2022-09-27T09:02:17.697Z,42.60
2022-09-27T09:07:43.337Z,42.50
2022-09-27T09:12:54.270Z,42.90
2022-09-27T09:18:10.854Z,43.00
2022-09-27T09:23:41.105Z,42.80
2022-09-27T09:29:01.890Z,42.40
2022-09-27T09:34:11.748Z,42.50
2022-09-27T09:39:19.328Z,42.90
2022-09-27T09:44:28.785Z,42.70
2022-09-27T09:49:37.081Z,42.80
2022-09-27T09:54:44.867Z,42.30
2022-09-27T09:59:54.499Z,42.80
2022-09-27T10:04:58.068Z,42.90
2022-09-27T10:10:03.111Z,42.40
2022-09-27T10:15:08.675Z,42.60
2022-09-27T10:20:22.889Z,42.80
2022-09-27T10:25:27.886Z,42.90
2022-09-27T10:30:34.799Z,43.80
2022-09-27T10:35:42.136Z,43.30
2022-09-27T10:40:46.694Z,43.30
2022-09-27T10:45:51.497Z,43.10
2022-09-27T10:51:01.022Z,41.50
2022-09-27T10:56:04.414Z,40.70
2022-09-27T11:01:12.445Z,40.90
2022-09-27T11:06:32.166Z,40.30
2022-09-27T11:11:35.387Z,39.50
2022-09-27T11:16:58.741Z,41.20
2022-09-27T11:22:10.896Z,41.50
2022-09-27T11:27:24.762Z,40.00
2022-09-27T11:32:41.914Z,40.60
2022-09-27T11:37:53.666Z,40.30
2022-09-27T11:43:11.878Z,40.30
2022-09-27T11:48:28.900Z,39.20
2022-09-27T11:53:52.092Z,39.80
2022-09-27T11:59:06.377Z,37.50
2022-09-27T12:04:36.010Z,37.40
2022-09-27T12:09:43.380Z,36.40
2022-09-27T12:14:50.260Z,37.60
2022-09-27T12:19:58.392Z,38.40
2022-09-27T12:25:03.575Z,39.50
2022-09-27T12:30:07.750Z,39.60
2022-09-27T12:35:19.837Z,40.10
2022-09-27T12:40:27.035Z,40.40
2022-09-27T12:45:42.496Z,40.30
2022-09-27T12:50:51.586Z,39.90
2022-09-27T12:56:10.825Z,39.90
2022-09-27T13:01:28.013Z,39.60
2022-09-27T13:06:50.054Z,39.80
2022-09-27T13:12:01.348Z,39.20
2022-09-27T13:17:04.507Z,38.90
2022-09-27T13:22:10.947Z,39.60
2022-09-27T13:27:42.250Z,39.40
2022-09-27T13:33:26.747Z,38.70
2022-09-27T13:38:31.264Z,37.90
2022-09-27T13:43:53.061Z,39.30
2022-09-27T13:49:00.577Z,37.60
2022-09-27T13:54:10.618Z,37.90
2022-09-27T13:59:18.650Z,37.70
2022-09-27T14:04:26.164Z,38.20
2022-09-27T14:09:33.856Z,38.30
2022-09-27T14:14:38.067Z,38.30
2022-09-27T14:19:43.955Z,38.90
2022-09-27T14:24:50.193Z,38.20
2022-09-27T14:29:56.953Z,37.50
2022-09-27T14:35:28.094Z,37.80
2022-09-27T14:40:39.095Z,37.00
2022-09-27T14:45:42.194Z,37.40
2022-09-27T14:50:58.390Z,37.80
2022-09-27T14:56:09.145Z,37.20
2022-09-27T15:01:17.388Z,37.70
2022-09-27T15:06:21.197Z,36.80
2022-09-27T15:11:26.392Z,37.50
2022-09-27T15:16:29.689Z,36.60
2022-09-27T15:21:34.781Z,36.90
2022-09-27T15:26:43.442Z,36.60
2022-09-27T15:31:46.760Z,36.50
2022-09-27T15:36:55.990Z,37.00
2022-09-27T15:42:06.187Z,38.00
2022-09-27T15:47:40.469Z,38.30
2022-09-27T15:52:47.230Z,39.00
2022-09-27T15:57:56.717Z,39.40
2022-09-27T16:02:59.769Z,39.80
2022-09-27T16:08:03.156Z,39.40
2022-09-27T16:13:07.779Z,39.80
2022-09-27T16:18:11.745Z,39.80
2022-09-27T16:23:16.080Z,39.80
2022-09-27T16:28:20.550Z,39.60
2022-09-27T16:33:24.159Z,39.90
2022-09-27T16:38:27.196Z,39.70
2022-09-27T16:43:32.395Z,39.60
2022-09-27T16:48:35.476Z,39.90
2022-09-27T16:53:38.653Z,40.00
2022-09-27T16:58:43.073Z,40.00
2022-09-27T17:03:52.618Z,40.20
2022-09-27T17:08:59.069Z,40.60
2022-09-27T17:14:03.628Z,40.20
2022-09-27T17:19:06.808Z,40.70
2022-09-27T17:24:10.354Z,40.60
2022-09-27T17:29:15.399Z,40.20
2022-09-27T17:34:18.697Z,40.40
2022-09-27T17:39:23.220Z,40.20
2022-09-27T17:44:28.122Z,40.20
2022-09-27T17:49:45.185Z,40.20
2022-09-27T17:54:48.293Z,40.00
2022-09-27T17:59:53.573Z,40.30
2022-09-27T18:04:56.645Z,40.70
2022-09-27T18:10:00.049Z,40.40
2022-09-27T18:15:05.635Z,40.40
2022-09-27T18:20:09.468Z,40.60
2022-09-27T18:25:12.677Z,40.40
2022-09-27T18:30:17.401Z,40.70
2022-09-27T18:35:23.833Z,40.80
2022-09-27T18:40:51.502Z,40.90
2022-09-27T18:45:51.580Z,40.90
2022-09-27T18:50:54.743Z,41.00
2022-09-27T18:56:02.195Z,40.70
2022-09-27T19:01:08.587Z,40.80
2022-09-27T19:06:13.892Z,40.80
2022-09-27T19:11:18.696Z,40.90
2022-09-27T19:16:24.615Z,41.00
2022-09-27T19:21:30.109Z,41.00
2022-09-27T19:26:33.189Z,41.00
2022-09-27T19:31:37.753Z,41.00
2022-09-27T19:36:40.867Z,41.00
2022-09-27T19:41:44.415Z,41.10
2022-09-27T19:46:48.923Z,41.10
2022-09-27T19:51:52.219Z,41.10
2022-09-27T19:56:55.286Z,41.10
2022-09-27T20:02:00.187Z,41.30
2022-09-27T20:07:03.452Z,41.20
2022-09-27T20:12:07.281Z,41.20
2022-09-27T20:17:13.608Z,41.50
2022-09-27T20:22:16.680Z,42.60
2022-09-27T20:27:20.354Z,41.50
2022-09-27T20:32:28.577Z,41.70
2022-09-27T20:37:32.215Z,42.10
2022-09-27T20:42:35.288Z,42.00
2022-09-27T20:47:39.725Z,41.90
2022-09-27T20:52:42.838Z,42.50
2022-09-27T20:57:57.450Z,41.80
2022-09-27T21:03:02.320Z,41.80
2022-09-27T21:08:05.592Z,42.20
2022-09-27T21:13:08.648Z,41.80
2022-09-27T21:18:13.077Z,41.90
2022-09-27T21:23:16.556Z,42.40
2022-09-27T21:28:19.681Z,42.30
2022-09-27T21:33:24.175Z,42.30
2022-09-27T21:38:27.265Z,42.30
2022-09-27T21:43:32.888Z,42.30
2022-09-27T21:48:39.013Z,42.20
2022-09-27T21:53:44.186Z,42.20
2022-09-27T21:58:47.383Z,42.10
2022-09-27T22:03:54.218Z,42.00
2022-09-27T22:08:58.501Z,42.60
2022-09-27T22:14:02.154Z,41.90
2022-09-27T22:19:06.911Z,41.90
2022-09-27T22:24:13.993Z,42.00
2022-09-27T22:29:17.329Z,42.40
2022-09-27T22:34:28.912Z,42.10
2022-09-27T22:39:32.348Z,42.50
2022-09-27T22:44:35.541Z,42.30
2022-09-27T22:49:40.028Z,42.20
2022-09-27T22:54:43.117Z,42.40
2022-09-27T22:59:46.208Z,42.30
2022-09-27T23:04:50.666Z,42.30
2022-09-27T23:09:53.797Z,42.60
2022-09-27T23:14:57.320Z,42.50
2022-09-27T23:20:02.691Z,42.50
2022-09-27T23:25:06.529Z,42.80
2022-09-27T23:30:10.763Z,42.50
2022-09-27T23:35:15.422Z,42.70
2022-09-27T23:40:18.685Z,43.00
2022-09-27T23:45:21.927Z,42.90
2022-09-27T23:50:26.843Z,42.80
2022-09-27T23:55:29.913Z,42.90
